createdAt,value
2019-03-10T00:00:27.206Z,17.81
2019-03-10T00:01:37.017Z,17.88
2019-03-10T00:02:41.774Z,17.40
2019-03-10T00:03:46.553Z,17.53
2019-03-10T00:04:51.537Z,17.92
2019-03-10T00:05:56.515Z,17.71
2019-03-10T00:07:01.187Z,17.90
2019-03-10T00:08:08.055Z,17.87
2019-03-10T00:09:13.523Z,17.64
2019-03-10T00:10:18.250Z,17.75
2019-03-10T00:11:23.160Z,17.55
2019-03-10T00:12:27.888Z,17.93
2019-03-10T00:13:32.587Z,18.15
2019-03-10T00:14:37.861Z,18.06
2019-03-10T00:15:43.143Z,17.93
2019-03-10T00:16:48.125Z,18.03
2019-03-10T00:17:52.758Z,18.16
2019-03-10T00:18:58.300Z,18.18
2019-03-10T00:20:02.986Z,18.12
2019-03-10T00:21:08.247Z,17.82
2019-03-10T00:22:12.977Z,17.66
2019-03-10T00:23:17.699Z,18.20
2019-03-10T00:24:22.451Z,18.15
2019-03-10T00:25:27.160Z,17.84
2019-03-10T00:26:32.544Z,18.13
2019-03-10T00:27:37.312Z,18.31
2019-03-10T00:28:42.384Z,18.39
2019-03-10T00:29:47.075Z,17.85
2019-03-10T00:30:52.371Z,17.95
2019-03-10T00:31:57.655Z,17.84
2019-03-10T00:33:03.213Z,17.89
2019-03-10T00:34:08.103Z,17.59
2019-03-10T00:35:13.230Z,17.91
2019-03-10T00:36:18.247Z,17.62
2019-03-10T00:37:23.008Z,17.87
2019-03-10T00:38:29.552Z,17.86
2019-03-10T00:40:17.893Z,17.93
2019-03-10T00:41:54.770Z,17.93
2019-03-10T00:43:58.589Z,17.90
2019-03-10T00:45:43.090Z,18.02
2019-03-10T00:47:26.754Z,17.66
2019-03-10T00:49:20.743Z,17.40
2019-03-10T00:51:01.698Z,17.40
2019-03-10T00:52:13.456Z,17.69
2019-03-10T00:53:18.593Z,17.68
2019-03-10T00:54:23.611Z,18.05
2019-03-10T00:55:28.982Z,17.98
2019-03-10T00:56:34.377Z,17.75
2019-03-10T00:57:39.410Z,17.97
2019-03-10T00:58:44.445Z,18.17
2019-03-10T00:59:49.703Z,17.80
2019-03-10T01:00:54.699Z,18.02
2019-03-10T01:01:59.676Z,17.73
2019-03-10T01:03:05.211Z,17.92
2019-03-10T01:04:10.798Z,17.70
2019-03-10T01:05:16.086Z,17.92
2019-03-10T01:06:21.372Z,17.99
2019-03-10T01:07:26.363Z,17.81
2019-03-10T01:08:32.380Z,17.74
2019-03-10T01:09:37.690Z,17.52
2019-03-10T01:10:42.871Z,17.49
2019-03-10T01:11:48.212Z,17.72
2019-03-10T01:12:53.487Z,17.52
2019-03-10T01:13:58.757Z,18.12
2019-03-10T01:15:03.223Z,17.78
2019-03-10T01:16:08.559Z,17.93
2019-03-10T01:17:13.883Z,17.87
2019-03-10T01:18:19.991Z,17.96
2019-03-10T01:19:24.983Z,17.85
2019-03-10T01:20:30.510Z,18.02
2019-03-10T01:21:36.459Z,17.98
2019-03-10T01:22:41.380Z,17.62
2019-03-10T01:23:46.345Z,17.84
2019-03-10T01:24:51.333Z,17.69
2019-03-10T01:25:56.303Z,17.76
2019-03-10T01:27:01.375Z,17.96
2019-03-10T01:28:05.876Z,18.18
2019-03-10T01:29:10.614Z,18.43
2019-03-10T01:30:19.967Z,18.72
2019-03-10T01:31:33.495Z,17.90
2019-03-10T01:32:55.726Z,18.04
2019-03-10T01:34:34.610Z,17.66
2019-03-10T01:35:43.341Z,17.52
2019-03-10T01:36:48.313Z,17.77
2019-03-10T01:37:53.270Z,17.84
2019-03-10T01:38:58.003Z,17.90
2019-03-10T01:40:03.326Z,17.92
2019-03-10T01:41:08.066Z,17.96
2019-03-10T01:42:13.046Z,17.85
2019-03-10T01:43:18.318Z,17.88
2019-03-10T01:44:22.763Z,17.96
2019-03-10T01:45:28.085Z,17.82
2019-03-10T01:46:33.142Z,18.19
2019-03-10T01:47:38.876Z,18.22
2019-03-10T01:48:43.854Z,17.97
2019-03-10T01:49:49.396Z,18.18
2019-03-10T01:50:54.467Z,18.05
2019-03-10T01:51:59.225Z,18.18
2019-03-10T01:53:04.600Z,18.11
2019-03-10T01:54:09.636Z,17.85
2019-03-10T01:55:14.672Z,18.34
2019-03-10T01:56:19.677Z,17.80
2019-03-10T01:57:24.206Z,17.97
2019-03-10T01:58:29.430Z,17.74
2019-03-10T01:59:34.502Z,17.88
2019-03-10T02:00:39.581Z,18.23
2019-03-10T02:01:44.886Z,17.66
2019-03-10T02:02:50.243Z,17.66
2019-03-10T02:03:55.525Z,17.73
2019-03-10T02:05:00.819Z,17.94
2019-03-10T02:06:06.198Z,17.85
2019-03-10T02:07:11.158Z,17.89
2019-03-10T02:08:15.869Z,17.52
2019-03-10T02:09:21.516Z,17.77
2019-03-10T02:10:26.834Z,17.90
2019-03-10T02:11:32.533Z,17.93
2019-03-10T02:12:37.249Z,18.02
2019-03-10T02:13:41.694Z,17.96
2019-03-10T02:14:46.669Z,18.21
2019-03-10T02:15:51.889Z,18.25
2019-03-10T02:16:56.586Z,18.12
2019-03-10T02:18:01.590Z,18.17
2019-03-10T02:19:06.526Z,18.28
2019-03-10T02:20:13.552Z,18.00
2019-03-10T02:21:18.827Z,18.11
2019-03-10T02:22:24.548Z,18.30
2019-03-10T02:23:29.844Z,18.17
2019-03-10T02:24:35.384Z,18.06
2019-03-10T02:25:40.709Z,18.13
2019-03-10T02:26:45.793Z,18.36
2019-03-10T02:27:50.579Z,18.52
2019-03-10T02:28:55.867Z,18.52
2019-03-10T02:30:00.659Z,18.40
2019-03-10T02:31:05.335Z,18.24
2019-03-10T02:32:10.889Z,18.06
2019-03-10T02:33:16.061Z,18.23
2019-03-10T02:34:20.789Z,18.30
2019-03-10T02:35:25.555Z,18.25
2019-03-10T02:36:30.384Z,18.36
2019-03-10T02:37:35.690Z,17.79
2019-03-10T02:38:40.731Z,18.02
2019-03-10T02:39:45.550Z,18.15
2019-03-10T02:40:50.853Z,18.02
2019-03-10T02:41:55.886Z,17.76
2019-03-10T02:43:00.863Z,18.11
2019-03-10T02:44:05.596Z,18.12
2019-03-10T02:45:11.872Z,18.19
2019-03-10T02:46:16.843Z,18.14
2019-03-10T02:47:22.105Z,18.22
2019-03-10T02:48:26.876Z,17.93
2019-03-10T02:49:32.444Z,18.23
2019-03-10T02:50:37.401Z,18.26
2019-03-10T02:51:42.516Z,18.31
2019-03-10T02:52:47.752Z,18.37
2019-03-10T02:53:52.828Z,18.11
2019-03-10T02:54:57.857Z,18.03
2019-03-10T02:56:03.431Z,17.86
2019-03-10T02:57:08.253Z,17.98
2019-03-10T02:58:13.714Z,18.14
2019-03-10T02:59:19.090Z,17.93
2019-03-10T03:00:24.158Z,17.97
2019-03-10T03:01:28.897Z,17.73
2019-03-10T03:02:33.906Z,18.04
2019-03-10T03:03:39.257Z,18.09
2019-03-10T03:04:44.332Z,18.09
2019-03-10T03:05:49.578Z,18.00
2019-03-10T03:06:54.825Z,17.99
2019-03-10T03:08:00.365Z,18.02
2019-03-10T03:09:07.235Z,17.82
2019-03-10T03:10:12.547Z,17.31
2019-03-10T03:11:18.213Z,17.59
2019-03-10T03:12:23.474Z,17.84
2019-03-10T03:13:27.934Z,17.70
2019-03-10T03:14:32.454Z,17.88
2019-03-10T03:15:37.967Z,18.19
2019-03-10T03:16:43.282Z,18.13
2019-03-10T03:17:48.253Z,18.22
2019-03-10T03:18:53.209Z,18.17
2019-03-10T03:19:58.185Z,18.18
2019-03-10T03:21:03.566Z,18.08
2019-03-10T03:22:08.283Z,17.91
2019-03-10T03:23:13.367Z,18.10
2019-03-10T03:24:18.372Z,18.04
2019-03-10T03:25:23.403Z,18.23
2019-03-10T03:26:29.071Z,18.04
2019-03-10T03:27:34.357Z,18.12
2019-03-10T03:28:39.667Z,17.74
2019-03-10T03:29:44.987Z,17.84
2019-03-10T03:30:50.263Z,17.54
2019-03-10T03:31:55.234Z,17.73
2019-03-10T03:33:00.337Z,17.16
2019-03-10T03:34:06.095Z,17.68
2019-03-10T03:35:54.089Z,17.76
2019-03-10T03:36:59.393Z,18.03
2019-03-10T03:38:04.440Z,17.97
2019-03-10T03:39:29.216Z,17.57
2019-03-10T03:40:34.228Z,17.50
2019-03-10T03:41:39.020Z,17.40
2019-03-10T03:42:44.276Z,17.42
2019-03-10T03:43:49.640Z,17.80
2019-03-10T03:44:54.955Z,17.39
2019-03-10T03:46:00.063Z,17.33
2019-03-10T03:47:05.427Z,17.44
2019-03-10T03:48:10.477Z,17.59
2019-03-10T03:49:15.766Z,17.59
2019-03-10T03:50:20.449Z,17.64
2019-03-10T03:51:25.593Z,17.69
2019-03-10T03:52:30.830Z,17.85
2019-03-10T03:53:35.882Z,17.74
2019-03-10T03:54:41.166Z,17.52
2019-03-10T03:55:46.236Z,17.47
2019-03-10T03:56:51.313Z,17.57
2019-03-10T03:57:56.449Z,17.48
2019-03-10T03:59:01.189Z,17.56
2019-03-10T04:00:06.381Z,16.79
2019-03-10T04:01:35.997Z,17.12
2019-03-10T04:02:41.156Z,17.33
2019-03-10T04:03:45.967Z,17.29
2019-03-10T04:04:51.260Z,17.58
2019-03-10T04:05:55.948Z,16.98
2019-03-10T04:07:00.932Z,17.16
2019-03-10T04:08:05.932Z,17.37
2019-03-10T04:09:10.972Z,17.31
2019-03-10T04:10:15.940Z,17.47
2019-03-10T04:11:21.044Z,17.31
2019-03-10T04:12:25.485Z,17.37
2019-03-10T04:13:30.765Z,17.53
2019-03-10T04:14:36.174Z,17.42
2019-03-10T04:15:41.243Z,17.40
2019-03-10T04:16:46.226Z,17.33
2019-03-10T04:17:51.537Z,17.39
2019-03-10T04:18:56.578Z,17.43
2019-03-10T04:20:01.869Z,17.49
2019-03-10T04:21:06.582Z,17.22
2019-03-10T04:22:11.301Z,17.48
2019-03-10T04:23:16.388Z,17.47
2019-03-10T04:24:22.011Z,17.54
2019-03-10T04:25:26.694Z,17.37
2019-03-10T04:26:31.962Z,17.44
2019-03-10T04:27:37.086Z,17.14
2019-03-10T04:28:42.431Z,17.41
2019-03-10T04:29:47.755Z,17.60
2019-03-10T04:30:53.034Z,17.36
2019-03-10T04:31:58.544Z,17.43
2019-03-10T04:33:03.856Z,17.41
2019-03-10T04:34:08.918Z,17.35
2019-03-10T04:35:13.933Z,17.28
2019-03-10T04:36:18.980Z,17.45
2019-03-10T04:37:23.716Z,17.19
2019-03-10T04:38:28.742Z,17.03
2019-03-10T04:39:34.281Z,17.03
2019-03-10T04:40:39.047Z,17.19
2019-03-10T04:41:44.136Z,16.98
2019-03-10T04:42:49.114Z,17.05
2019-03-10T04:43:54.160Z,17.09
2019-03-10T04:44:58.927Z,17.35
2019-03-10T04:46:04.013Z,17.35
2019-03-10T04:47:08.816Z,17.00
2019-03-10T04:48:14.444Z,17.01
2019-03-10T04:49:19.701Z,17.04
2019-03-10T04:50:24.483Z,16.06
2019-03-10T04:51:29.799Z,16.56
2019-03-10T04:52:35.054Z,16.43
2019-03-10T04:53:40.284Z,16.71
2019-03-10T04:55:19.597Z,16.67
2019-03-10T04:56:49.625Z,15.81
2019-03-10T04:58:14.580Z,16.13
2019-03-10T04:59:19.644Z,16.40
2019-03-10T05:00:24.835Z,16.29
2019-03-10T05:01:30.121Z,16.28
2019-03-10T05:02:35.535Z,16.24
2019-03-10T05:03:40.824Z,16.48
2019-03-10T05:04:45.837Z,16.46
2019-03-10T05:05:51.125Z,16.76
2019-03-10T05:06:56.439Z,16.44
2019-03-10T05:08:01.516Z,16.44
2019-03-10T05:09:10.185Z,16.21
2019-03-10T05:10:15.444Z,16.12
2019-03-10T05:11:20.561Z,15.50
2019-03-10T05:12:25.601Z,15.53
2019-03-10T05:13:30.588Z,15.56
2019-03-10T05:14:35.461Z,15.92
2019-03-10T05:15:40.438Z,15.80
2019-03-10T05:16:45.551Z,14.98
2019-03-10T05:17:50.457Z,15.88
2019-03-10T05:18:55.986Z,16.10
2019-03-10T05:20:01.547Z,16.27
2019-03-10T05:21:08.582Z,16.01
2019-03-10T05:22:15.038Z,15.28
2019-03-10T05:23:35.118Z,15.99
2019-03-10T05:24:39.629Z,16.10
2019-03-10T05:25:44.350Z,27.68
2019-03-10T05:26:49.654Z,16.50
2019-03-10T05:27:54.896Z,16.01
2019-03-10T05:28:59.890Z,16.61
2019-03-10T05:30:04.913Z,15.08
2019-03-10T05:31:09.810Z,14.65
2019-03-10T05:32:15.326Z,14.83
2019-03-10T05:33:20.005Z,14.70
2019-03-10T05:34:24.979Z,14.65
2019-03-10T05:35:30.140Z,14.79
2019-03-10T05:36:35.284Z,14.54
2019-03-10T05:37:40.240Z,14.22
2019-03-10T05:38:45.897Z,14.76
2019-03-10T05:39:50.634Z,15.18
2019-03-10T05:40:56.225Z,15.47
2019-03-10T05:42:00.789Z,15.03
2019-03-10T05:43:05.590Z,15.55
2019-03-10T05:44:10.846Z,15.47
2019-03-10T05:45:15.841Z,15.36
2019-03-10T05:46:20.787Z,15.08
2019-03-10T05:47:25.752Z,14.78
2019-03-10T05:48:31.076Z,14.95
2019-03-10T05:49:36.554Z,14.86
2019-03-10T05:50:41.546Z,14.70
2019-03-10T05:51:46.303Z,14.65
2019-03-10T05:52:51.354Z,14.94
2019-03-10T05:53:56.578Z,14.04
2019-03-10T05:55:02.103Z,14.74
2019-03-10T05:56:07.273Z,15.00
2019-03-10T05:57:12.695Z,15.64
2019-03-10T05:58:18.241Z,15.99
2019-03-10T05:59:23.926Z,15.18
2019-03-10T06:00:29.046Z,15.61
2019-03-10T06:01:34.151Z,15.77
2019-03-10T06:02:39.817Z,15.81
2019-03-10T06:03:45.060Z,16.40
2019-03-10T06:04:50.792Z,15.87
2019-03-10T06:05:56.146Z,15.83
2019-03-10T06:07:01.745Z,15.61
2019-03-10T06:08:06.732Z,15.97
2019-03-10T06:09:11.422Z,16.17
2019-03-10T06:10:16.433Z,16.58
2019-03-10T06:11:21.836Z,16.14
2019-03-10T06:12:27.053Z,16.06
2019-03-10T06:13:31.516Z,15.67
2019-03-10T06:14:36.777Z,15.92
2019-03-10T06:15:41.839Z,15.91
2019-03-10T06:16:47.111Z,16.14
2019-03-10T06:17:52.545Z,15.34
2019-03-10T06:18:57.559Z,15.84
2019-03-10T06:20:02.841Z,16.23
2019-03-10T06:21:08.191Z,15.48
2019-03-10T06:22:12.916Z,15.87
2019-03-10T06:23:18.621Z,15.79
2019-03-10T06:24:23.338Z,15.62
2019-03-10T06:25:28.501Z,15.93
2019-03-10T06:26:33.580Z,15.65
2019-03-10T06:27:38.304Z,15.09
2019-03-10T06:28:43.296Z,15.77
2019-03-10T06:29:48.958Z,15.39
2019-03-10T06:30:56.333Z,14.99
2019-03-10T06:32:00.810Z,15.03
2019-03-10T06:33:05.830Z,15.06
2019-03-10T06:34:10.777Z,14.74
2019-03-10T06:35:15.888Z,14.03
2019-03-10T06:36:20.930Z,13.93
2019-03-10T06:37:25.977Z,14.71
2019-03-10T06:38:30.726Z,15.42
2019-03-10T06:39:35.976Z,14.30
2019-03-10T06:40:41.015Z,13.98
2019-03-10T06:41:45.578Z,14.11
2019-03-10T06:42:50.974Z,14.56
2019-03-10T06:43:56.172Z,14.51
2019-03-10T06:45:01.451Z,14.71
2019-03-10T06:46:06.126Z,14.73
2019-03-10T06:47:11.549Z,14.49
2019-03-10T06:48:16.583Z,14.73
2019-03-10T06:49:21.877Z,14.69
2019-03-10T06:50:26.559Z,13.73
2019-03-10T06:51:31.910Z,14.24
2019-03-10T06:52:37.008Z,14.54
2019-03-10T06:53:42.315Z,14.18
2019-03-10T06:54:48.093Z,14.93
2019-03-10T06:55:53.371Z,14.87
2019-03-10T06:56:58.623Z,14.66
2019-03-10T06:58:03.884Z,13.83
2019-03-10T06:59:08.900Z,14.11
2019-03-10T07:00:13.963Z,14.40
2019-03-10T07:01:19.279Z,14.85
2019-03-10T07:02:24.552Z,14.69
2019-03-10T07:03:29.655Z,14.61
2019-03-10T07:04:35.073Z,14.22
2019-03-10T07:05:39.878Z,13.86
2019-03-10T07:06:44.739Z,13.69
2019-03-10T07:07:49.185Z,13.96
2019-03-10T07:08:53.972Z,14.34
2019-03-10T07:09:59.198Z,14.15
2019-03-10T07:11:04.226Z,13.88
2019-03-10T07:12:08.945Z,14.18
2019-03-10T07:13:13.674Z,14.17
2019-03-10T07:14:18.660Z,14.04
2019-03-10T07:15:23.456Z,14.33
2019-03-10T07:16:28.975Z,14.39
2019-03-10T07:17:34.313Z,13.76
2019-03-10T07:18:39.670Z,14.40
2019-03-10T07:19:44.659Z,14.27
2019-03-10T07:20:49.786Z,14.33
2019-03-10T07:21:55.050Z,14.46
2019-03-10T07:22:59.739Z,13.92
2019-03-10T07:24:05.047Z,14.30
2019-03-10T07:25:09.911Z,14.06
2019-03-10T07:26:15.125Z,13.74
2019-03-10T07:27:19.559Z,13.82
2019-03-10T07:28:31.769Z,14.47
2019-03-10T07:29:49.940Z,14.97
2019-03-10T07:31:14.210Z,14.19
2019-03-10T07:32:24.104Z,14.25
2019-03-10T07:33:47.941Z,14.93
2019-03-10T07:35:21.261Z,15.19
2019-03-10T07:36:50.724Z,14.53
2019-03-10T07:38:32.799Z,14.68
2019-03-10T07:39:59.324Z,14.83
2019-03-10T07:41:22.710Z,15.25
2019-03-10T07:42:35.536Z,15.36
2019-03-10T07:44:05.939Z,14.79
2019-03-10T07:45:41.541Z,15.11
2019-03-10T07:46:52.767Z,14.93
2019-03-10T07:48:35.157Z,14.67
2019-03-10T07:49:46.550Z,14.66
2019-03-10T07:51:19.589Z,14.83
2019-03-10T07:52:42.244Z,14.87
2019-03-10T07:54:09.508Z,15.06
2019-03-10T07:55:36.149Z,14.97
2019-03-10T07:56:59.010Z,15.44
2019-03-10T07:58:32.010Z,15.41
2019-03-10T07:59:55.000Z,14.43
2019-03-10T08:01:17.881Z,15.36
2019-03-10T08:03:00.204Z,15.29
2019-03-10T08:04:23.795Z,15.58
2019-03-10T08:05:40.423Z,15.57
2019-03-10T08:07:19.746Z,15.45
2019-03-10T08:08:30.083Z,15.82
2019-03-10T08:09:52.425Z,15.53
2019-03-10T08:11:19.119Z,15.18
2019-03-10T08:12:41.617Z,15.08
2019-03-10T08:14:05.203Z,15.56
2019-03-10T08:15:31.681Z,15.93
2019-03-10T08:17:01.429Z,16.30
2019-03-10T08:18:30.952Z,16.30
2019-03-10T08:19:55.127Z,16.34
2019-03-10T08:21:09.725Z,16.38
2019-03-10T08:22:32.849Z,16.50
2019-03-10T08:23:50.654Z,16.52
2019-03-10T08:25:24.179Z,16.30
2019-03-10T08:26:51.073Z,16.06
2019-03-10T08:28:08.764Z,15.37
2019-03-10T08:29:38.979Z,16.61
2019-03-10T08:31:02.722Z,17.87
2019-03-10T08:32:29.506Z,18.91
2019-03-10T08:33:59.633Z,17.63
2019-03-10T08:35:19.102Z,17.70
2019-03-10T08:36:32.510Z,17.28
2019-03-10T08:37:43.820Z,16.57
2019-03-10T08:39:06.692Z,17.50
2019-03-10T08:40:20.523Z,17.62
2019-03-10T08:41:45.897Z,17.56
2019-03-10T08:43:16.295Z,17.65
2019-03-10T08:44:35.400Z,17.77
2019-03-10T08:46:02.042Z,18.01
2019-03-10T08:47:32.084Z,18.16
2019-03-10T08:48:49.775Z,18.22
2019-03-10T08:50:05.559Z,17.98
2019-03-10T08:51:32.381Z,18.25
2019-03-10T08:52:44.110Z,17.90
2019-03-10T08:53:53.245Z,18.90
2019-03-10T08:55:29.388Z,18.83
2019-03-10T08:57:05.708Z,19.30
2019-03-10T08:58:35.220Z,20.22
2019-03-10T08:59:55.471Z,19.81
2019-03-10T09:01:13.764Z,20.46
2019-03-10T09:02:46.614Z,20.93
2019-03-10T09:04:13.817Z,20.75
2019-03-10T09:05:36.306Z,20.15
2019-03-10T09:06:58.836Z,20.55
2019-03-10T09:08:21.530Z,20.08
2019-03-10T09:09:45.856Z,20.73
2019-03-10T09:11:13.060Z,20.21
2019-03-10T09:12:23.444Z,20.63
2019-03-10T09:13:35.163Z,20.26
2019-03-10T09:15:02.081Z,20.35
2019-03-10T09:16:20.342Z,19.54
2019-03-10T09:17:32.120Z,20.22
2019-03-10T09:18:54.878Z,19.80
2019-03-10T09:20:16.258Z,19.96
2019-03-10T09:21:28.951Z,20.00
2019-03-10T09:22:50.884Z,19.52
2019-03-10T09:24:05.971Z,19.91
2019-03-10T09:25:33.149Z,20.27
2019-03-10T09:26:45.046Z,20.37
2019-03-10T09:28:11.664Z,20.43
2019-03-10T09:29:47.347Z,19.79
2019-03-10T09:31:01.696Z,19.48
2019-03-10T09:32:34.170Z,19.45
2019-03-10T09:34:01.619Z,19.25
2019-03-10T09:35:26.078Z,18.44
2019-03-10T09:36:59.054Z,18.47
2019-03-10T09:38:10.012Z,18.59
2019-03-10T09:39:22.344Z,18.83
2019-03-10T09:40:45.664Z,18.90
2019-03-10T09:42:08.819Z,18.66
2019-03-10T09:43:32.451Z,18.26
2019-03-10T09:44:47.405Z,18.28
2019-03-10T09:46:26.765Z,18.41
2019-03-10T09:47:58.415Z,18.28
2019-03-10T09:49:22.310Z,18.22
2019-03-10T09:50:52.039Z,18.20
2019-03-10T09:52:18.807Z,17.86
2019-03-10T09:53:49.333Z,18.33
2019-03-10T09:55:09.421Z,18.07
2019-03-10T09:56:22.434Z,18.33
2019-03-10T09:57:55.005Z,18.50
2019-03-10T09:59:14.678Z,18.27
2019-03-10T10:00:38.538Z,18.68
2019-03-10T10:02:07.968Z,18.61
2019-03-10T10:03:34.557Z,18.80
2019-03-10T10:05:01.026Z,18.69
2019-03-10T10:06:27.500Z,19.16
2019-03-10T10:07:50.714Z,19.37
2019-03-10T10:09:13.196Z,19.98
2019-03-10T10:10:28.732Z,21.45
2019-03-10T10:11:45.917Z,23.35
2019-03-10T10:13:16.161Z,28.22
2019-03-10T10:14:26.970Z,29.70
2019-03-10T10:15:54.254Z,30.19
2019-03-10T10:17:18.361Z,26.20
2019-03-10T10:18:40.886Z,24.80
2019-03-10T10:20:11.141Z,25.64
2019-03-10T10:21:37.714Z,25.73
2019-03-10T10:22:49.012Z,23.81
2019-03-10T10:24:07.043Z,23.75
2019-03-10T10:25:22.752Z,23.00
2019-03-10T10:26:56.317Z,22.93
2019-03-10T10:28:23.212Z,22.64
2019-03-10T10:29:56.140Z,22.80
2019-03-10T10:31:29.310Z,22.95
2019-03-10T10:32:41.538Z,22.70
2019-03-10T10:34:08.349Z,22.73
2019-03-10T10:35:32.117Z,22.87
2019-03-10T10:36:58.722Z,23.22
2019-03-10T10:38:18.715Z,22.91
2019-03-10T10:39:41.977Z,22.89
2019-03-10T10:41:06.136Z,22.61
2019-03-10T10:42:28.673Z,21.73
2019-03-10T10:43:52.282Z,21.68
2019-03-10T10:45:10.997Z,21.77
2019-03-10T10:46:33.813Z,20.88
2019-03-10T10:47:52.481Z,20.60
2019-03-10T10:49:19.091Z,20.47
2019-03-10T10:50:30.964Z,20.33
2019-03-10T10:51:54.391Z,19.90
2019-03-10T10:53:22.103Z,20.65
2019-03-10T10:54:44.786Z,20.15
2019-03-10T10:56:14.196Z,20.56
2019-03-10T10:57:27.223Z,20.91
2019-03-10T10:58:45.465Z,21.79
2019-03-10T11:00:03.428Z,21.61
2019-03-10T11:01:25.914Z,21.48
2019-03-10T11:02:48.610Z,21.41
2019-03-10T11:04:18.098Z,22.11
2019-03-10T11:05:40.165Z,22.25
2019-03-10T11:06:50.366Z,22.56
2019-03-10T11:08:10.740Z,23.01
2019-03-10T11:09:31.337Z,23.29
2019-03-10T11:10:44.081Z,23.32
2019-03-10T11:12:14.042Z,23.78
2019-03-10T11:13:31.570Z,23.12
2019-03-10T11:14:55.586Z,22.32
2019-03-10T11:16:09.928Z,22.99
2019-03-10T11:17:27.308Z,22.33
2019-03-10T11:18:51.205Z,22.59
2019-03-10T11:20:13.903Z,22.51
2019-03-10T11:21:37.556Z,20.88
2019-03-10T11:23:16.361Z,21.56
2019-03-10T11:24:39.927Z,21.33
2019-03-10T11:25:52.062Z,20.82
2019-03-10T11:27:12.178Z,21.01
2019-03-10T11:28:39.240Z,20.47
2019-03-10T11:30:02.009Z,20.59
2019-03-10T11:31:17.231Z,21.20
2019-03-10T11:32:49.885Z,20.85
2019-03-10T11:34:05.604Z,20.66
2019-03-10T11:35:33.239Z,20.73
2019-03-10T11:37:15.287Z,20.23
2019-03-10T11:38:39.146Z,19.96
2019-03-10T11:39:50.514Z,19.92
2019-03-10T11:41:12.537Z,19.88
2019-03-10T11:42:35.250Z,19.63
2019-03-10T11:43:45.924Z,19.44
2019-03-10T11:45:06.719Z,19.27
2019-03-10T11:46:50.068Z,19.18
2019-03-10T11:48:04.281Z,19.23
2019-03-10T11:49:30.906Z,19.64
2019-03-10T11:50:55.064Z,20.06
2019-03-10T11:52:08.198Z,19.72
2019-03-10T11:53:25.742Z,22.89
2019-03-10T11:54:44.072Z,24.79
2019-03-10T11:56:14.105Z,24.68
2019-03-10T11:57:24.083Z,25.71
2019-03-10T11:58:51.277Z,25.67
2019-03-10T12:00:03.122Z,24.66
2019-03-10T12:01:38.545Z,22.41
2019-03-10T12:03:02.118Z,22.00
2019-03-10T12:04:25.746Z,22.53
2019-03-10T12:05:49.367Z,24.70
2019-03-10T12:07:11.934Z,28.54
2019-03-10T12:08:34.836Z,27.90
2019-03-10T12:09:40.130Z,24.29
2019-03-10T12:10:45.258Z,23.31
2019-03-10T12:11:50.685Z,24.80
2019-03-10T12:12:55.133Z,24.93
2019-03-10T12:14:00.276Z,23.85
2019-03-10T12:15:05.449Z,23.24
2019-03-10T12:16:10.430Z,23.06
2019-03-10T12:17:15.741Z,23.20
2019-03-10T12:18:21.091Z,23.41
2019-03-10T12:19:26.259Z,22.83
2019-03-10T12:20:31.018Z,21.93
2019-03-10T12:21:36.161Z,22.83
2019-03-10T12:22:41.450Z,22.05
2019-03-10T12:23:47.011Z,22.21
2019-03-10T12:24:52.411Z,21.50
2019-03-10T12:25:57.184Z,22.47
2019-03-10T12:27:02.413Z,22.11
2019-03-10T12:28:07.364Z,23.13
2019-03-10T12:29:12.357Z,22.66
2019-03-10T12:30:17.254Z,22.29
2019-03-10T12:31:22.607Z,23.28
2019-03-10T12:32:28.223Z,22.92
2019-03-10T12:33:35.949Z,23.03
2019-03-10T12:34:40.952Z,22.58
2019-03-10T12:35:45.992Z,22.25
2019-03-10T12:36:50.601Z,21.37
2019-03-10T12:37:55.662Z,21.36
2019-03-10T12:39:00.645Z,20.96
2019-03-10T12:40:05.592Z,21.68
2019-03-10T12:41:10.636Z,22.08
2019-03-10T12:42:15.629Z,22.02
2019-03-10T12:43:20.944Z,21.68
2019-03-10T12:44:26.215Z,22.26
2019-03-10T12:45:31.221Z,22.53
2019-03-10T12:46:36.063Z,21.90
2019-03-10T12:47:41.454Z,21.92
2019-03-10T12:48:46.708Z,21.68
2019-03-10T12:49:51.446Z,21.40
2019-03-10T12:50:55.936Z,21.30
2019-03-10T12:52:01.505Z,21.19
2019-03-10T12:53:06.967Z,20.73
2019-03-10T12:54:12.222Z,20.99
2019-03-10T12:55:17.229Z,21.73
2019-03-10T12:56:21.939Z,20.88
2019-03-10T12:57:27.437Z,20.83
2019-03-10T12:58:32.611Z,20.51
2019-03-10T12:59:37.986Z,20.27
2019-03-10T13:00:43.010Z,21.05
2019-03-10T13:01:47.813Z,21.16
2019-03-10T13:02:52.851Z,21.47
2019-03-10T13:03:59.148Z,22.20
2019-03-10T13:05:04.117Z,22.46
2019-03-10T13:06:09.207Z,21.82
2019-03-10T13:07:14.257Z,21.50
2019-03-10T13:08:18.959Z,21.87
2019-03-10T13:09:24.232Z,22.47
2019-03-10T13:10:29.212Z,22.34
2019-03-10T13:11:34.391Z,22.83
2019-03-10T13:12:39.385Z,22.24
2019-03-10T13:13:44.932Z,21.97
2019-03-10T13:14:58.927Z,21.54
2019-03-10T13:15:56.088Z,22.12
2019-03-10T13:17:01.580Z,22.04
2019-03-10T13:18:06.342Z,21.89
2019-03-10T13:19:11.714Z,21.96
2019-03-10T13:20:27.537Z,22.72
2019-03-10T13:21:26.094Z,22.85
2019-03-10T13:22:31.621Z,22.84
2019-03-10T13:23:36.904Z,22.13
2019-03-10T13:24:41.896Z,21.74
2019-03-10T13:25:46.411Z,22.37
2019-03-10T13:26:51.427Z,21.99
2019-03-10T13:27:56.913Z,21.65
2019-03-10T13:29:01.945Z,21.39
2019-03-10T13:30:07.039Z,22.12
2019-03-10T13:31:12.009Z,21.98
2019-03-10T13:32:17.203Z,21.69
2019-03-10T13:33:21.681Z,22.13
2019-03-10T13:34:27.117Z,21.46
2019-03-10T13:35:32.204Z,21.20
2019-03-10T13:36:37.455Z,21.35
2019-03-10T13:37:42.422Z,21.37
2019-03-10T13:38:47.142Z,21.81
2019-03-10T13:39:51.879Z,21.83
2019-03-10T13:40:56.956Z,22.07
2019-03-10T13:42:01.637Z,22.44
2019-03-10T13:43:06.676Z,22.51
2019-03-10T13:44:11.957Z,21.71
2019-03-10T13:45:16.717Z,21.33
2019-03-10T13:46:21.841Z,21.42
2019-03-10T13:47:26.654Z,21.56
2019-03-10T13:48:31.410Z,21.82
2019-03-10T13:49:36.447Z,21.93
2019-03-10T13:50:41.180Z,22.05
2019-03-10T13:51:46.736Z,22.10
2019-03-10T13:52:51.236Z,21.04
2019-03-10T13:53:56.267Z,21.69
2019-03-10T13:55:01.229Z,21.73
2019-03-10T13:56:05.955Z,21.85
2019-03-10T13:57:11.229Z,22.01
2019-03-10T13:58:16.488Z,21.88
2019-03-10T13:59:21.519Z,21.54
2019-03-10T14:00:26.366Z,20.96
2019-03-10T14:01:31.524Z,21.33
2019-03-10T14:02:36.587Z,21.09
2019-03-10T14:03:41.766Z,21.05
2019-03-10T14:04:47.078Z,21.61
2019-03-10T14:05:51.822Z,21.43
2019-03-10T14:06:57.259Z,21.12
2019-03-10T14:08:02.252Z,21.59
2019-03-10T14:09:08.350Z,21.88
2019-03-10T14:10:13.200Z,22.22
2019-03-10T14:11:17.729Z,21.88
2019-03-10T14:12:22.720Z,22.25
2019-03-10T14:13:27.784Z,22.28
2019-03-10T14:14:33.084Z,22.37
2019-03-10T14:15:38.544Z,22.72
2019-03-10T14:16:43.859Z,22.66
2019-03-10T14:17:49.633Z,22.00
2019-03-10T14:18:55.068Z,21.92
2019-03-10T14:20:00.449Z,20.99
2019-03-10T14:21:05.659Z,20.93
2019-03-10T14:22:10.663Z,20.51
2019-03-10T14:23:15.423Z,21.06
2019-03-10T14:24:20.109Z,21.35
2019-03-10T14:25:25.234Z,21.20
2019-03-10T14:26:30.912Z,21.11
2019-03-10T14:27:35.984Z,21.01
2019-03-10T14:28:40.709Z,20.92
2019-03-10T14:29:46.384Z,21.45
2019-03-10T14:30:51.585Z,21.28
2019-03-10T14:31:56.595Z,21.88
2019-03-10T14:33:01.579Z,21.35
2019-03-10T14:34:06.592Z,21.70
2019-03-10T14:35:11.396Z,22.00
2019-03-10T14:36:16.786Z,21.57
2019-03-10T14:37:22.103Z,21.56
2019-03-10T14:38:28.076Z,21.56
2019-03-10T14:39:33.136Z,22.08
2019-03-10T14:40:38.144Z,21.36
2019-03-10T14:41:42.939Z,21.19
2019-03-10T14:42:47.643Z,21.31
2019-03-10T14:43:52.345Z,21.10
2019-03-10T14:44:57.608Z,20.84
2019-03-10T14:46:02.045Z,21.09
2019-03-10T14:47:07.418Z,20.50
2019-03-10T14:48:12.414Z,20.08
2019-03-10T14:49:23.317Z,20.04
2019-03-10T14:50:24.413Z,19.89
2019-03-10T14:51:29.633Z,20.65
2019-03-10T14:52:34.708Z,20.47
2019-03-10T14:53:40.124Z,20.22
2019-03-10T14:54:44.631Z,20.69
2019-03-10T14:55:50.203Z,20.06
2019-03-10T14:56:54.885Z,19.86
2019-03-10T14:57:59.860Z,19.49
2019-03-10T14:59:04.646Z,20.15
2019-03-10T15:00:13.005Z,19.88
2019-03-10T15:01:18.010Z,19.43
2019-03-10T15:02:22.739Z,19.58
2019-03-10T15:03:28.410Z,19.75
2019-03-10T15:04:33.256Z,19.77
2019-03-10T15:05:38.531Z,19.63
2019-03-10T15:06:43.570Z,19.61
2019-03-10T15:07:48.857Z,19.68
2019-03-10T15:08:54.408Z,19.94